Terminal Aerodrome Forecast
Issued by NWS Brownsville, TX

Home | Current Version | Previous Version | Text Only | Print | Product List | Glossary On
Versions: 1 2 3 4 5 6 7 8 9 10 11 12 13 14 15 16 17
898
FTUS44 KBRO 131309 AAC
TAFHRL
TAF AMD
KHRL 131309Z 1313/1412 09005KT 3SM BR SKC
     FM131500 16008KT P6SM FEW250
     FM131800 14013G19KT P6SM BKN250
     FM140300 15009KT P6SM SKC
     FM140600 16008KT P6SM SKC=

USA.gov is the U.S. government's official web portal to all federal, state and local government web resources and services.